createdAt,value
2023-04-24T00:02:28.042Z,8.84
2023-04-24T00:04:56.947Z,8.81
2023-04-24T00:07:25.594Z,8.76
2023-04-24T00:09:55.812Z,8.69
2023-04-24T00:12:24.118Z,8.68
2023-04-24T00:14:53.012Z,8.63
2023-04-24T00:17:22.390Z,8.55
2023-04-24T00:19:52.595Z,8.54
2023-04-24T00:22:22.376Z,8.48
2023-04-24T00:24:50.932Z,8.47
2023-04-24T00:27:20.656Z,8.49
2023-04-24T00:29:49.251Z,8.45
2023-04-24T00:32:19.334Z,8.43
2023-04-24T00:34:47.871Z,8.36
2023-04-24T00:37:16.252Z,8.31
2023-04-24T00:39:45.168Z,8.31
2023-04-24T00:42:14.467Z,8.23
2023-04-24T00:44:44.248Z,8.22
2023-04-24T00:47:14.589Z,8.20
2023-04-24T00:49:43.354Z,8.18
2023-04-24T00:52:13.982Z,8.15
2023-04-24T00:54:43.369Z,8.11
2023-04-24T00:57:11.951Z,8.08
2023-04-24T00:59:42.330Z,8.09
2023-04-24T01:02:16.120Z,8.08
2023-04-24T01:04:45.566Z,8.08
2023-04-24T01:07:14.110Z,8.03
2023-04-24T01:09:43.988Z,8.00
2023-04-24T01:12:13.862Z,8.00
2023-04-24T01:14:46.556Z,7.97
2023-04-24T01:17:16.382Z,7.98
2023-04-24T01:19:46.265Z,7.97
2023-04-24T01:22:18.245Z,7.95
2023-04-24T01:24:48.163Z,7.94
2023-04-24T01:27:16.981Z,7.92
2023-04-24T01:29:45.659Z,7.99
2023-04-24T01:32:15.041Z,8.02
2023-04-24T01:34:43.677Z,7.93
2023-04-24T01:37:12.555Z,7.92
2023-04-24T01:39:43.043Z,7.95
2023-04-24T01:42:11.950Z,7.95
2023-04-24T01:44:41.092Z,7.98
2023-04-24T01:47:10.576Z,8.00
2023-04-24T01:49:41.624Z,8.05
2023-04-24T02:02:44.266Z,8.11
2023-04-24T02:05:14.114Z,8.10
2023-04-24T02:07:42.803Z,8.06
2023-04-24T02:10:12.424Z,8.06
2023-04-24T02:12:41.095Z,8.09
2023-04-24T02:15:13.309Z,8.06
2023-04-24T02:17:43.297Z,7.71
2023-04-24T02:20:12.243Z,7.52
2023-04-24T02:22:40.716Z,7.44
2023-04-24T02:25:09.765Z,7.45
2023-04-24T02:27:38.222Z,7.41
2023-04-24T02:30:08.910Z,7.48
2023-04-24T02:32:37.398Z,7.59
2023-04-24T02:35:09.549Z,7.67
2023-04-24T02:37:38.094Z,7.73
2023-04-24T02:40:08.374Z,7.79
2023-04-24T02:42:37.198Z,7.79
2023-04-24T02:45:06.506Z,7.81
2023-04-24T02:47:35.537Z,7.75
2023-04-24T02:50:07.610Z,7.77
2023-04-24T02:52:36.026Z,7.83
2023-04-24T02:55:04.768Z,7.86
2023-04-24T02:57:33.083Z,7.93
2023-04-24T03:00:01.629Z,8.00
2023-04-24T03:02:30.664Z,8.02
2023-04-24T03:04:59.632Z,8.04
2023-04-24T03:07:29.829Z,8.07
2023-04-24T03:09:59.794Z,8.06
2023-04-24T03:12:28.358Z,8.11
2023-04-24T03:14:58.643Z,8.12
2023-04-24T03:17:27.164Z,8.15
2023-04-24T03:19:56.189Z,8.19
2023-04-24T03:22:24.593Z,8.21
2023-04-24T03:24:55.987Z,8.19
2023-04-24T03:27:24.936Z,8.17
2023-04-24T03:29:56.429Z,8.14
2023-04-24T03:32:25.407Z,8.04
2023-04-24T03:34:54.520Z,8.01
2023-04-24T03:37:23.144Z,7.97
2023-04-24T03:39:51.574Z,7.96
2023-04-24T03:42:21.562Z,8.00
2023-04-24T03:44:50.597Z,8.05
2023-04-24T03:47:18.935Z,8.04
2023-04-24T03:49:48.678Z,8.06
2023-04-24T03:52:17.050Z,8.12
2023-04-24T03:54:45.695Z,8.15
2023-04-24T03:57:14.593Z,8.15
2023-04-24T03:59:45.225Z,8.14
2023-04-24T04:02:14.082Z,8.09
2023-04-24T04:04:43.620Z,8.09
2023-04-24T04:07:12.661Z,8.10
2023-04-24T04:09:41.875Z,8.16
2023-04-24T04:12:10.534Z,8.14
2023-04-24T04:14:39.555Z,8.14
2023-04-24T04:17:11.107Z,8.11
2023-04-24T04:19:39.419Z,8.12
2023-04-24T04:22:09.229Z,8.09
2023-04-24T04:24:39.427Z,8.05
2023-04-24T04:27:09.582Z,8.01
2023-04-24T04:29:38.488Z,7.96
2023-04-24T04:32:08.814Z,7.90
2023-04-24T04:34:38.921Z,7.74
2023-04-24T04:37:07.665Z,7.51
2023-04-24T04:39:36.531Z,7.32
2023-04-24T04:42:05.391Z,7.08
2023-04-24T04:44:37.257Z,6.62
2023-04-24T04:47:06.799Z,6.49
2023-04-24T04:49:38.117Z,6.57
2023-04-24T04:52:08.051Z,6.55
2023-04-24T04:54:36.698Z,6.67
2023-04-24T04:57:05.687Z,6.72
2023-04-24T04:59:35.336Z,6.65
2023-04-24T05:02:03.924Z,6.69
2023-04-24T05:04:33.191Z,6.67
2023-04-24T05:07:04.710Z,6.68
2023-04-24T05:09:35.535Z,6.63
2023-04-24T05:12:05.263Z,6.69
2023-04-24T05:14:35.598Z,6.63
2023-04-24T05:17:04.803Z,6.50
2023-04-24T05:19:37.427Z,6.46
2023-04-24T05:22:07.994Z,6.46
2023-04-24T05:24:37.233Z,6.32
2023-04-24T05:27:06.842Z,6.31
2023-04-24T05:29:35.822Z,6.33
2023-04-24T05:32:04.658Z,6.23
2023-04-24T05:34:34.692Z,6.24
2023-04-24T05:37:04.909Z,6.24
2023-04-24T05:39:37.477Z,6.16
2023-04-24T05:42:06.504Z,6.08
2023-04-24T05:44:35.828Z,6.04
2023-04-24T05:47:04.348Z,5.96
2023-04-24T05:49:35.619Z,5.88
2023-04-24T05:52:07.728Z,5.77
2023-04-24T05:54:37.713Z,5.78
2023-04-24T05:57:08.825Z,5.73
2023-04-24T05:59:39.305Z,5.80
2023-04-24T06:02:08.394Z,5.75
2023-04-24T06:04:38.590Z,5.76
2023-04-24T06:07:07.967Z,5.76
2023-04-24T06:09:38.260Z,5.83
2023-04-24T06:12:08.724Z,5.81
2023-04-24T06:14:37.285Z,5.91
2023-04-24T06:17:05.738Z,5.80
2023-04-24T06:19:34.226Z,5.77
2023-04-24T06:22:02.813Z,5.73
2023-04-24T06:24:32.365Z,5.79
2023-04-24T06:27:02.603Z,5.81
2023-04-24T06:29:30.969Z,5.63
2023-04-24T06:31:59.555Z,5.54
2023-04-24T06:34:28.166Z,5.52
2023-04-24T06:36:57.618Z,5.57
2023-04-24T06:39:27.488Z,5.52
2023-04-24T06:41:56.308Z,5.49
2023-04-24T06:44:26.583Z,5.64
2023-04-24T06:46:59.182Z,5.57
2023-04-24T06:49:28.043Z,5.53
2023-04-24T06:51:56.698Z,5.54
2023-04-24T06:54:25.472Z,5.43
2023-04-24T06:56:55.749Z,5.46
2023-04-24T06:59:26.116Z,5.49
2023-04-24T07:01:55.678Z,5.50
2023-04-24T07:04:26.756Z,5.53
2023-04-24T07:06:57.147Z,5.40
2023-04-24T07:09:26.550Z,5.32
2023-04-24T07:11:58.922Z,5.48
2023-04-24T07:14:31.727Z,5.37
2023-04-24T07:17:00.166Z,5.39
2023-04-24T07:19:29.065Z,5.53
2023-04-24T07:22:00.425Z,5.52
2023-04-24T07:24:30.908Z,5.50
2023-04-24T07:26:59.730Z,5.51
2023-04-24T07:29:29.889Z,5.55
2023-04-24T07:32:00.492Z,5.60
2023-04-24T07:34:29.936Z,5.67
2023-04-24T07:36:58.729Z,5.67
2023-04-24T07:39:27.562Z,5.73
2023-04-24T07:41:55.952Z,5.59
2023-04-24T07:44:24.561Z,5.53
2023-04-24T07:46:55.159Z,5.44
2023-04-24T07:49:25.276Z,5.55
2023-04-24T07:51:53.524Z,5.49
2023-04-24T07:54:22.184Z,5.55
2023-04-24T07:56:52.282Z,5.71
2023-04-24T07:59:21.152Z,5.80
2023-04-24T08:01:49.646Z,5.90
2023-04-24T08:04:21.158Z,5.90
2023-04-24T08:06:50.694Z,6.02
2023-04-24T08:09:19.457Z,6.08
2023-04-24T08:11:47.784Z,6.12
2023-04-24T08:14:16.371Z,6.24
2023-04-24T08:16:44.753Z,6.01
2023-04-24T08:19:13.441Z,6.24
2023-04-24T08:21:43.588Z,6.33
2023-04-24T08:24:12.228Z,6.52
2023-04-24T08:26:41.241Z,6.80
2023-04-24T08:29:09.654Z,6.52
2023-04-24T08:31:38.495Z,6.56
2023-04-24T08:34:07.172Z,6.44
2023-04-24T08:36:45.952Z,6.48
2023-04-24T08:39:18.784Z,6.65
2023-04-24T08:41:48.043Z,6.43
2023-04-24T08:44:17.750Z,6.49
2023-04-24T08:46:48.903Z,6.59
2023-04-24T08:49:19.232Z,6.71
2023-04-24T08:51:48.982Z,6.81
2023-04-24T08:54:23.037Z,6.96
2023-04-24T08:56:54.740Z,6.81
2023-04-24T08:59:31.741Z,6.97
2023-04-24T09:02:02.723Z,6.71
2023-04-24T09:04:44.446Z,6.87
2023-04-24T09:07:18.623Z,6.73
2023-04-24T09:09:57.379Z,6.65
2023-04-24T09:12:53.988Z,6.75
2023-04-24T09:15:42.503Z,6.90
2023-04-24T09:18:54.416Z,6.72
2023-04-24T09:28:37.131Z,6.72
2023-04-24T09:31:15.305Z,6.83
2023-04-24T09:37:56.319Z,6.97
2023-04-24T09:44:53.628Z,7.04
2023-04-24T09:48:00.841Z,7.07
2023-04-24T09:58:16.587Z,7.81
2023-04-24T10:08:31.194Z,7.34
2023-04-24T10:22:00.139Z,7.90
2023-04-24T11:13:57.069Z,8.54
2023-04-24T11:24:56.334Z,8.85
2023-04-24T11:27:47.331Z,9.16
2023-04-24T11:30:45.682Z,8.99
2023-04-24T11:33:22.898Z,9.52
2023-04-24T11:35:56.974Z,9.76
2023-04-24T11:38:39.858Z,9.61
2023-04-24T11:41:09.298Z,10.16
2023-04-24T11:43:50.229Z,10.18
2023-04-24T11:46:23.942Z,10.27
2023-04-24T11:48:59.960Z,10.37
2023-04-24T11:55:29.665Z,10.22
2023-04-24T12:44:35.924Z,9.89
2023-04-24T13:03:57.527Z,9.47
2023-04-24T13:10:37.108Z,9.51
2023-04-24T13:52:18.031Z,9.75
2023-04-24T13:54:52.694Z,9.40
2023-04-24T13:58:14.383Z,9.59
2023-04-24T14:01:14.371Z,9.55
2023-04-24T14:03:52.087Z,9.67
2023-04-24T14:06:24.865Z,9.73
2023-04-24T14:25:04.288Z,9.41
2023-04-24T14:32:05.371Z,9.21
2023-04-24T14:38:36.524Z,9.44
2023-04-24T14:41:15.901Z,9.41
2023-04-24T14:44:01.654Z,9.45
2023-04-24T14:58:38.397Z,9.62
2023-04-24T15:06:38.054Z,9.81
2023-04-24T15:09:54.560Z,10.05
2023-04-24T15:13:30.573Z,10.33
2023-04-24T15:24:15.727Z,11.65
2023-04-24T15:27:33.626Z,11.33
2023-04-24T15:31:20.265Z,10.77
2023-04-24T15:35:10.143Z,10.55
2023-04-24T15:38:33.291Z,10.95
2023-04-24T15:41:01.900Z,10.97
2023-04-24T15:43:32.578Z,10.45
2023-04-24T15:46:01.378Z,10.57
2023-04-24T15:48:30.379Z,10.61
2023-04-24T15:51:00.113Z,10.62
2023-04-24T15:53:30.131Z,10.66
2023-04-24T15:55:58.617Z,10.22
2023-04-24T15:58:27.078Z,10.00
2023-04-24T16:00:55.998Z,10.01
2023-04-24T16:03:24.622Z,10.08
2023-04-24T16:05:54.381Z,9.96
2023-04-24T16:08:23.016Z,9.83
2023-04-24T16:10:53.770Z,9.66
2023-04-24T16:13:22.503Z,9.84
2023-04-24T16:15:52.568Z,9.92
2023-04-24T16:18:21.223Z,9.68
2023-04-24T16:20:52.037Z,9.78
2023-04-24T16:23:20.864Z,9.68
2023-04-24T16:25:49.459Z,9.56
2023-04-24T16:28:19.967Z,9.48
2023-04-24T16:30:48.676Z,9.62
2023-04-24T16:33:17.829Z,9.56
2023-04-24T16:35:49.430Z,9.60
2023-04-24T16:38:18.097Z,9.47
2023-04-24T16:40:46.930Z,9.52
2023-04-24T16:43:15.360Z,9.58
2023-04-24T16:45:46.218Z,9.47
2023-04-24T16:48:18.185Z,9.59
2023-04-24T16:50:51.525Z,9.46
2023-04-24T16:53:20.651Z,9.46
2023-04-24T16:55:51.087Z,9.50
2023-04-24T16:58:20.246Z,9.43
2023-04-24T17:00:50.777Z,9.39
2023-04-24T17:03:19.536Z,9.30
2023-04-24T17:05:48.431Z,9.34
2023-04-24T17:08:16.997Z,9.28
2023-04-24T17:10:45.404Z,9.47
2023-04-24T17:13:14.690Z,9.46
2023-04-24T17:15:43.762Z,9.81
2023-04-24T17:18:13.823Z,11.57
2023-04-24T17:20:42.110Z,12.66
2023-04-24T17:23:12.249Z,12.50
2023-04-24T17:25:41.176Z,12.79
2023-04-24T17:28:22.566Z,14.21
2023-04-24T17:30:51.143Z,16.06
2023-04-24T17:33:21.358Z,17.38
2023-04-24T17:35:50.757Z,16.61
2023-04-24T17:38:19.954Z,16.28
2023-04-24T17:40:48.500Z,17.00
2023-04-24T17:43:18.561Z,17.14
2023-04-24T17:45:47.696Z,17.22
2023-04-24T17:48:16.522Z,17.76
2023-04-24T17:50:47.419Z,18.01
2023-04-24T17:53:16.435Z,17.92
2023-04-24T17:55:45.001Z,17.27
2023-04-24T17:58:14.135Z,17.52
2023-04-24T18:00:43.505Z,17.37
2023-04-24T18:03:12.137Z,17.34
2023-04-24T18:05:41.592Z,17.33
2023-04-24T18:08:11.559Z,17.52
2023-04-24T18:10:40.069Z,17.47
2023-04-24T18:13:09.828Z,17.45
2023-04-24T18:15:42.294Z,17.23
2023-04-24T18:18:11.285Z,17.27
2023-04-24T18:20:39.660Z,16.81
2023-04-24T18:23:08.163Z,14.40
2023-04-24T18:25:38.179Z,14.32
2023-04-24T18:28:06.851Z,14.43
2023-04-24T18:30:35.172Z,14.90
2023-04-24T18:33:03.875Z,15.60
2023-04-24T18:35:32.371Z,14.96
2023-04-24T18:38:02.071Z,12.54
2023-04-24T18:40:30.991Z,11.52
2023-04-24T18:43:01.334Z,10.92
2023-04-24T18:45:30.134Z,12.10
2023-04-24T18:47:58.640Z,11.93
2023-04-24T18:50:31.970Z,12.20
2023-04-24T18:53:00.653Z,11.88
2023-04-24T18:55:29.324Z,11.70
2023-04-24T18:57:57.838Z,11.30
2023-04-24T19:00:28.075Z,11.16
2023-04-24T19:02:56.668Z,10.93
2023-04-24T19:05:27.071Z,10.76
2023-04-24T19:07:55.786Z,10.17
2023-04-24T19:10:24.345Z,9.93
2023-04-24T19:12:57.289Z,9.89
2023-04-24T19:15:25.726Z,9.68
2023-04-24T19:17:55.967Z,9.61
2023-04-24T19:20:30.705Z,9.33
2023-04-24T19:23:00.298Z,9.18
2023-04-24T19:25:28.925Z,9.07
2023-04-24T19:27:58.527Z,8.97
2023-04-24T19:30:27.171Z,8.94
2023-04-24T19:32:58.726Z,8.79
2023-04-24T19:35:27.559Z,8.72
2023-04-24T19:37:57.009Z,8.60
2023-04-24T19:40:25.812Z,8.35
2023-04-24T19:42:55.856Z,8.30
2023-04-24T19:45:24.378Z,8.26
2023-04-24T19:47:53.454Z,8.19
2023-04-24T19:50:23.617Z,8.09
2023-04-24T19:52:52.051Z,8.01
2023-04-24T19:55:20.482Z,7.93
2023-04-24T19:57:48.776Z,7.89
2023-04-24T20:00:17.453Z,7.93
2023-04-24T20:02:46.349Z,7.96
2023-04-24T20:05:14.996Z,7.96
2023-04-24T20:07:46.625Z,7.81
2023-04-24T20:10:15.610Z,7.66
2023-04-24T20:12:44.197Z,7.52
2023-04-24T20:15:13.954Z,7.49
2023-04-24T20:17:44.554Z,7.53
2023-04-24T20:20:15.871Z,7.55
2023-04-24T20:22:51.194Z,7.51
2023-04-24T20:25:21.030Z,7.45
2023-04-24T20:27:49.631Z,7.42
2023-04-24T20:30:18.330Z,7.35
2023-04-24T20:32:46.927Z,7.29
2023-04-24T20:35:15.568Z,7.25
2023-04-24T20:37:48.286Z,7.23
2023-04-24T20:40:17.498Z,7.17
2023-04-24T20:42:46.430Z,7.13
2023-04-24T20:45:14.907Z,7.05
2023-04-24T20:47:43.579Z,6.93
2023-04-24T20:50:13.018Z,6.80
2023-04-24T20:52:41.557Z,6.82
2023-04-24T20:55:11.922Z,6.86
2023-04-24T20:57:40.721Z,6.95
2023-04-24T21:00:11.299Z,7.02
2023-04-24T21:02:39.777Z,6.94
2023-04-24T21:05:10.338Z,6.93
2023-04-24T21:07:39.085Z,6.94
2023-04-24T21:10:09.803Z,6.91
2023-04-24T21:12:40.721Z,6.82
2023-04-24T21:15:09.924Z,6.50
2023-04-24T21:17:39.725Z,6.38
2023-04-24T21:20:09.958Z,6.40
2023-04-24T21:22:44.848Z,6.41
2023-04-24T21:25:14.529Z,6.45
2023-04-24T21:27:44.688Z,6.48
2023-04-24T21:30:22.127Z,6.46
2023-04-24T21:32:52.679Z,6.30
2023-04-24T21:35:22.506Z,6.30
2023-04-24T21:37:55.987Z,6.17
2023-04-24T21:40:24.452Z,6.18
2023-04-24T21:42:58.077Z,6.19
2023-04-24T21:45:27.632Z,6.22
2023-04-24T21:47:58.658Z,6.16
2023-04-24T21:50:27.310Z,6.21
2023-04-24T21:52:55.943Z,6.18
2023-04-24T21:55:24.392Z,6.11
2023-04-24T21:57:56.723Z,6.10
2023-04-24T22:00:27.336Z,6.07
2023-04-24T22:02:58.181Z,6.05
2023-04-24T22:05:31.707Z,6.01
2023-04-24T22:08:00.712Z,5.99
2023-04-24T22:10:31.327Z,6.01
2023-04-24T22:13:01.758Z,6.01
2023-04-24T22:15:36.497Z,6.04
2023-04-24T22:18:06.825Z,6.09
2023-04-24T22:20:39.233Z,6.14
2023-04-24T22:23:07.738Z,6.16
2023-04-24T22:25:37.299Z,6.19
2023-04-24T22:28:07.753Z,6.21
2023-04-24T22:30:36.248Z,6.29
2023-04-24T22:33:05.390Z,6.37
2023-04-24T22:35:36.212Z,6.45
2023-04-24T22:38:05.021Z,6.45
2023-04-24T22:40:35.815Z,6.40
2023-04-24T22:43:04.207Z,6.37
2023-04-24T22:45:36.393Z,6.46
2023-04-24T22:48:06.073Z,6.53
2023-04-24T22:50:37.262Z,6.59
2023-04-24T22:53:05.930Z,6.52
2023-04-24T22:55:38.603Z,6.56
2023-04-24T22:58:08.603Z,6.60
2023-04-24T23:00:39.570Z,6.59
2023-04-24T23:03:08.303Z,6.61
2023-04-24T23:05:37.128Z,6.55
2023-04-24T23:08:06.879Z,6.51
2023-04-24T23:10:35.276Z,6.42
2023-04-24T23:13:04.987Z,6.34
2023-04-24T23:15:35.245Z,6.31
2023-04-24T23:18:06.333Z,6.36
2023-04-24T23:20:37.756Z,6.35
2023-04-24T23:23:06.782Z,6.36
2023-04-24T23:25:35.334Z,6.41
2023-04-24T23:28:03.744Z,6.42
2023-04-24T23:30:33.402Z,6.47
2023-04-24T23:33:02.510Z,6.51
2023-04-24T23:35:33.968Z,6.51
2023-04-24T23:38:11.324Z,6.47
2023-04-24T23:40:41.874Z,6.39
2023-04-24T23:43:10.341Z,6.30
2023-04-24T23:45:46.829Z,6.20
2023-04-24T23:48:15.785Z,6.19
2023-04-24T23:50:50.889Z,5.93
2023-04-24T23:53:21.440Z,5.71
2023-04-24T23:55:52.120Z,5.77
2023-04-24T23:58:22.804Z,5.65
